SWA1088 KSAT-KHOU
Flight info
| Callsign | SWA1088 |
|---|---|
| Flight time | 0h 34m |
| Altitude | 27000 |
| Route | SNIDR2 WEMAR BELLR6 |
| Aircraft | B738/M-SADE2E3GIJ4RWZ/LB1D1 |
Departure
| Time | 2026-04-25 05:29 |
|---|---|
| Airport | San Antonio International Airport (KSAT) |
Arrival
| Time | 2026-04-25 06:04 |
|---|---|
| Airport | William P. Hobby Airport (KHOU) |
| Time | Latitude | Longitude | Altitude | Speed | Heading |
|---|---|---|---|---|---|
| 2026-04-25 04:59 | 29.52736 | -98.47091 | 797 ft | 0 kts | 146° |
| 2026-04-25 05:21 | 29.52742 | -98.47096 | 797 ft | 2 kts | 142° |
| 2026-04-25 05:21 | 29.52756 | -98.47108 | 797 ft | 2 kts | 138° |
| 2026-04-25 05:21 | 29.52767 | -98.47121 | 797 ft | 2 kts | 120° |
| 2026-04-25 05:21 | 29.52769 | -98.47140 | 797 ft | 2 kts | 56° |
| 2026-04-25 05:22 | 29.52765 | -98.47147 | 797 ft | 0 kts | 45° |
| 2026-04-25 05:24 | 29.52775 | -98.47135 | 797 ft | 6 kts | 43° |
| 2026-04-25 05:25 | 29.52800 | -98.47110 | 797 ft | 0 kts | 41° |
| 2026-04-25 05:25 | 29.52801 | -98.47109 | 797 ft | 2 kts | 41° |
| 2026-04-25 05:25 | 29.52844 | -98.47066 | 797 ft | 6 kts | 37° |
| 2026-04-25 05:25 | 29.52941 | -98.47044 | 797 ft | 9 kts | 350° |
| 2026-04-25 05:26 | 29.53030 | -98.47142 | 797 ft | 26 kts | 311° |
| 2026-04-25 05:26 | 29.53182 | -98.47336 | 797 ft | 36 kts | 312° |
| 2026-04-25 05:26 | 29.53356 | -98.47561 | 797 ft | 39 kts | 311° |
| 2026-04-25 05:26 | 29.53533 | -98.47794 | 797 ft | 38 kts | 311° |
| 2026-04-25 05:27 | 29.53652 | -98.47944 | 797 ft | 38 kts | 312° |
| 2026-04-25 05:27 | 29.53881 | -98.48238 | 797 ft | 37 kts | 310° |
| 2026-04-25 05:27 | 29.54047 | -98.48450 | 797 ft | 33 kts | 312° |
| 2026-04-25 05:27 | 29.54105 | -98.48524 | 797 ft | 11 kts | 311° |
| 2026-04-25 05:28 | 29.54192 | -98.48602 | 797 ft | 15 kts | 1° |
| 2026-04-25 05:28 | 29.54247 | -98.48524 | 797 ft | 13 kts | 100° |
| 2026-04-25 05:28 | 29.54207 | -98.48461 | 797 ft | 23 kts | 133° |
| 2026-04-25 05:28 | 29.53910 | -98.48080 | 797 ft | 105 kts | 131° |
| 2026-04-25 05:29 | 29.53258 | -98.47254 | 887 ft | 165 kts | 132° |
| 2026-04-25 05:29 | 29.52412 | -98.46227 | 1610 ft | 181 kts | 138° |
| 2026-04-25 05:29 | 29.51498 | -98.45350 | 2875 ft | 165 kts | 145° |
| 2026-04-25 05:29 | 29.50563 | -98.44458 | 3509 ft | 189 kts | 144° |
| 2026-04-25 05:30 | 29.49445 | -98.43461 | 3845 ft | 216 kts | 146° |
| 2026-04-25 05:30 | 29.48242 | -98.42312 | 4248 ft | 238 kts | 131° |
| 2026-04-25 05:30 | 29.47621 | -98.40498 | 4743 ft | 256 kts | 93° |
| 2026-04-25 05:30 | 29.48075 | -98.38524 | 5472 ft | 263 kts | 58° |
| 2026-04-25 05:31 | 29.49387 | -98.37024 | 5978 ft | 276 kts | 29° |
| 2026-04-25 05:31 | 29.51264 | -98.36223 | 6315 ft | 298 kts | 13° |
| 2026-04-25 05:31 | 29.53278 | -98.35676 | 7349 ft | 290 kts | 9° |
| 2026-04-25 05:31 | 29.55208 | -98.35120 | 8474 ft | 290 kts | 17° |
| 2026-04-25 05:32 | 29.56995 | -98.33930 | 9171 ft | 304 kts | 39° |
| 2026-04-25 05:32 | 29.58458 | -98.32156 | 9974 ft | 312 kts | 48° |
| 2026-04-25 05:32 | 29.59776 | -98.30148 | 10699 ft | 322 kts | 53° |
| 2026-04-25 05:32 | 29.61067 | -98.27930 | 11014 ft | 345 kts | 55° |
| 2026-04-25 05:33 | 29.62327 | -98.25478 | 11273 ft | 369 kts | 63° |
| 2026-04-25 05:33 | 29.63208 | -98.22641 | 11674 ft | 384 kts | 77° |
| 2026-04-25 05:33 | 29.63551 | -98.19598 | 12482 ft | 386 kts | 86° |
| 2026-04-25 05:33 | 29.63677 | -98.16509 | 13287 ft | 387 kts | 86° |
| 2026-04-25 05:34 | 29.63873 | -98.13382 | 13849 ft | 396 kts | 84° |
| 2026-04-25 05:34 | 29.64186 | -98.10222 | 14545 ft | 397 kts | 82° |
| 2026-04-25 05:34 | 29.64542 | -98.07041 | 15082 ft | 406 kts | 83° |
| 2026-04-25 05:34 | 29.64877 | -98.03789 | 15606 ft | 413 kts | 83° |
| 2026-04-25 05:35 | 29.65138 | -98.00470 | 16231 ft | 417 kts | 87° |
| 2026-04-25 05:35 | 29.65214 | -97.97126 | 16869 ft | 420 kts | 89° |
| 2026-04-25 05:35 | 29.65231 | -97.93752 | 17454 ft | 424 kts | 90° |
| 2026-04-25 05:35 | 29.65245 | -97.90333 | 18050 ft | 429 kts | 89° |
| 2026-04-25 05:36 | 29.65278 | -97.86890 | 18584 ft | 432 kts | 89° |
| 2026-04-25 05:36 | 29.65324 | -97.83422 | 18921 ft | 435 kts | 89° |
| 2026-04-25 05:36 | 29.65372 | -97.79909 | 18949 ft | 445 kts | 89° |
| 2026-04-25 05:36 | 29.65414 | -97.76345 | 18962 ft | 457 kts | 89° |
| 2026-04-25 05:37 | 29.65455 | -97.72641 | 18967 ft | 467 kts | 89° |
| 2026-04-25 05:37 | 29.65495 | -97.68865 | 19025 ft | 477 kts | 89° |
| 2026-04-25 05:37 | 29.65534 | -97.65033 | 19343 ft | 481 kts | 89° |
| 2026-04-25 05:37 | 29.65572 | -97.61179 | 19779 ft | 482 kts | 89° |
| 2026-04-25 05:38 | 29.65610 | -97.57326 | 20176 ft | 484 kts | 89° |
| 2026-04-25 05:38 | 29.65647 | -97.53437 | 20541 ft | 487 kts | 89° |
| 2026-04-25 05:38 | 29.65684 | -97.49528 | 20889 ft | 490 kts | 89° |
| 2026-04-25 05:38 | 29.65719 | -97.45600 | 21232 ft | 493 kts | 89° |
| 2026-04-25 05:39 | 29.65754 | -97.41642 | 21563 ft | 496 kts | 89° |
| 2026-04-25 05:39 | 29.65788 | -97.37668 | 21900 ft | 499 kts | 89° |
| 2026-04-25 05:39 | 29.65821 | -97.33663 | 22211 ft | 502 kts | 89° |
| 2026-04-25 05:39 | 29.65853 | -97.29637 | 22523 ft | 505 kts | 89° |
| 2026-04-25 05:40 | 29.65883 | -97.25601 | 22835 ft | 507 kts | 89° |
| 2026-04-25 05:40 | 29.65910 | -97.21530 | 23132 ft | 510 kts | 89° |
| 2026-04-25 05:40 | 29.65930 | -97.17452 | 23424 ft | 512 kts | 89° |
| 2026-04-25 05:40 | 29.65948 | -97.13355 | 23736 ft | 513 kts | 89° |
| 2026-04-25 05:41 | 29.65966 | -97.09246 | 24102 ft | 512 kts | 89° |
| 2026-04-25 05:41 | 29.65962 | -97.05204 | 24469 ft | 512 kts | 91° |
| 2026-04-25 05:41 | 29.65585 | -97.01130 | 24821 ft | 513 kts | 100° |
| 2026-04-25 05:41 | 29.64729 | -96.97142 | 25173 ft | 513 kts | 109° |
| 2026-04-25 05:42 | 29.63413 | -96.93330 | 25553 ft | 512 kts | 114° |
| 2026-04-25 05:42 | 29.62011 | -96.89564 | 25911 ft | 512 kts | 114° |
| 2026-04-25 05:42 | 29.60593 | -96.85789 | 25827 ft | 514 kts | 114° |
| 2026-04-25 05:42 | 29.59191 | -96.82028 | 25772 ft | 509 kts | 114° |
| 2026-04-25 05:43 | 29.57837 | -96.78352 | 25770 ft | 505 kts | 114° |
| 2026-04-25 05:43 | 29.56472 | -96.74609 | 25783 ft | 507 kts | 114° |
| 2026-04-25 05:43 | 29.55116 | -96.70871 | 25778 ft | 509 kts | 113° |
| 2026-04-25 05:43 | 29.53757 | -96.67113 | 25788 ft | 510 kts | 113° |
| 2026-04-25 05:44 | 29.52399 | -96.63359 | 25875 ft | 508 kts | 113° |
| 2026-04-25 05:44 | 29.51045 | -96.59622 | 26086 ft | 506 kts | 113° |
| 2026-04-25 05:44 | 29.49689 | -96.55886 | 26281 ft | 507 kts | 113° |
| 2026-04-25 05:44 | 29.48325 | -96.52134 | 26322 ft | 512 kts | 114° |
| 2026-04-25 05:45 | 29.46950 | -96.48359 | 26290 ft | 512 kts | 113° |
| 2026-04-25 05:45 | 29.45580 | -96.44601 | 26337 ft | 509 kts | 114° |
| 2026-04-25 05:45 | 29.44220 | -96.40874 | 26743 ft | 504 kts | 114° |
| 2026-04-25 05:45 | 29.42857 | -96.37143 | 26788 ft | 510 kts | 114° |
| 2026-04-25 05:46 | 29.41479 | -96.33374 | 26789 ft | 511 kts | 113° |
| 2026-04-25 05:46 | 29.40132 | -96.29691 | 26786 ft | 491 kts | 114° |
| 2026-04-25 05:46 | 29.38846 | -96.26175 | 26786 ft | 464 kts | 114° |
| 2026-04-25 05:46 | 29.37622 | -96.22835 | 26459 ft | 448 kts | 114° |
| 2026-04-25 05:47 | 29.36423 | -96.19571 | 26034 ft | 441 kts | 114° |
| 2026-04-25 05:47 | 29.35232 | -96.16331 | 25625 ft | 442 kts | 114° |
| 2026-04-25 05:47 | 29.34213 | -96.13059 | 25189 ft | 444 kts | 101° |
| 2026-04-25 05:47 | 29.34054 | -96.09566 | 24772 ft | 436 kts | 81° |
| 2026-04-25 05:48 | 29.34756 | -96.06233 | 24370 ft | 426 kts | 65° |
| 2026-04-25 05:48 | 29.36165 | -96.03306 | 23959 ft | 415 kts | 49° |
| 2026-04-25 05:48 | 29.37942 | -96.00719 | 23555 ft | 410 kts | 47° |
| 2026-04-25 05:48 | 29.39756 | -95.98186 | 23018 ft | 410 kts | 46° |
| 2026-04-25 05:49 | 29.41560 | -95.95656 | 22436 ft | 410 kts | 47° |
| 2026-04-25 05:49 | 29.43341 | -95.93106 | 21874 ft | 408 kts | 48° |
| 2026-04-25 05:49 | 29.45094 | -95.90562 | 21295 ft | 402 kts | 48° |
| 2026-04-25 05:49 | 29.46778 | -95.88036 | 20723 ft | 396 kts | 54° |
| 2026-04-25 05:50 | 29.47965 | -95.85233 | 20164 ft | 393 kts | 67° |
| 2026-04-25 05:50 | 29.48896 | -95.82312 | 19604 ft | 387 kts | 69° |
| 2026-04-25 05:50 | 29.49780 | -95.79415 | 19032 ft | 382 kts | 69° |
| 2026-04-25 05:50 | 29.50658 | -95.76558 | 18457 ft | 378 kts | 69° |
| 2026-04-25 05:51 | 29.51543 | -95.73728 | 17822 ft | 375 kts | 68° |
| 2026-04-25 05:51 | 29.52435 | -95.70922 | 17133 ft | 372 kts | 68° |
| 2026-04-25 05:51 | 29.53293 | -95.68248 | 16483 ft | 370 kts | 68° |
| 2026-04-25 05:51 | 29.54182 | -95.65485 | 15825 ft | 367 kts | 68° |
| 2026-04-25 05:52 | 29.55066 | -95.62745 | 15152 ft | 365 kts | 68° |
| 2026-04-25 05:52 | 29.55943 | -95.60022 | 14491 ft | 363 kts | 68° |
| 2026-04-25 05:52 | 29.56816 | -95.57312 | 13848 ft | 360 kts | 69° |
| 2026-04-25 05:52 | 29.57673 | -95.54644 | 13226 ft | 350 kts | 69° |
| 2026-04-25 05:53 | 29.58503 | -95.52060 | 12504 ft | 340 kts | 69° |
| 2026-04-25 05:53 | 29.59312 | -95.49540 | 11810 ft | 332 kts | 69° |
| 2026-04-25 05:53 | 29.60102 | -95.47075 | 11132 ft | 325 kts | 70° |
| 2026-04-25 05:53 | 29.60492 | -95.44558 | 10431 ft | 319 kts | 96° |
| 2026-04-25 05:54 | 29.59820 | -95.42209 | 9802 ft | 307 kts | 126° |
| 2026-04-25 05:54 | 29.58503 | -95.40338 | 9150 ft | 297 kts | 135° |
| 2026-04-25 05:54 | 29.55685 | -95.37004 | 7733 ft | 286 kts | 137° |
| 2026-04-25 05:55 | 29.54039 | -95.35809 | 7000 ft | 280 kts | 166° |
| 2026-04-25 05:55 | 29.52144 | -95.35807 | 6305 ft | 273 kts | 198° |
| 2026-04-25 05:55 | 29.50591 | -95.36980 | 5586 ft | 268 kts | 231° |
| 2026-04-25 05:55 | 29.49883 | -95.38917 | 4867 ft | 266 kts | 264° |
| 2026-04-25 05:56 | 29.50231 | -95.40946 | 4157 ft | 268 kts | 297° |
| 2026-04-25 05:56 | 29.51400 | -95.42630 | 3662 ft | 259 kts | 310° |
| 2026-04-25 05:56 | 29.52241 | -95.44282 | 3629 ft | 226 kts | 276° |
| 2026-04-25 05:56 | 29.51978 | -95.45957 | 3844 ft | 214 kts | 235° |
| 2026-04-25 05:57 | 29.50807 | -95.46977 | 4116 ft | 218 kts | 195° |
| 2026-04-25 05:57 | 29.49306 | -95.46855 | 4372 ft | 223 kts | 156° |
| 2026-04-25 05:57 | 29.48082 | -95.45734 | 4487 ft | 228 kts | 136° |
| 2026-04-25 05:57 | 29.46796 | -95.44774 | 4470 ft | 222 kts | 169° |
| 2026-04-25 05:58 | 29.45317 | -95.45001 | 4652 ft | 218 kts | 210° |
| 2026-04-25 05:58 | 29.44353 | -95.46315 | 4931 ft | 222 kts | 251° |
| 2026-04-25 05:58 | 29.44362 | -95.48090 | 5182 ft | 232 kts | 289° |
| 2026-04-25 05:58 | 29.45276 | -95.49618 | 5323 ft | 234 kts | 311° |
| 2026-04-25 05:59 | 29.46361 | -95.51015 | 5185 ft | 238 kts | 322° |
| 2026-04-25 05:59 | 29.47923 | -95.51709 | 4693 ft | 248 kts | 353° |
| 2026-04-25 05:59 | 29.49621 | -95.51468 | 3830 ft | 248 kts | 21° |
| 2026-04-25 05:59 | 29.51078 | -95.50434 | 3135 ft | 242 kts | 45° |
| 2026-04-25 06:00 | 29.52036 | -95.48961 | 2630 ft | 230 kts | 64° |
| 2026-04-25 06:00 | 29.52695 | -95.47335 | 2392 ft | 217 kts | 71° |
| 2026-04-25 06:00 | 29.53250 | -95.45716 | 2794 ft | 220 kts | 71° |
| 2026-04-25 06:00 | 29.53745 | -95.44093 | 3727 ft | 205 kts | 77° |
| 2026-04-25 06:01 | 29.54116 | -95.42385 | 3768 ft | 241 kts | 79° |
| 2026-04-25 06:01 | 29.54484 | -95.40543 | 3916 ft | 230 kts | 76° |
| 2026-04-25 06:01 | 29.55058 | -95.38797 | 3814 ft | 243 kts | 65° |
| 2026-04-25 06:01 | 29.55968 | -95.37018 | 2208 ft | 270 kts | 58° |
| 2026-04-25 06:02 | 29.57084 | -95.35531 | 2213 ft | 231 kts | 41° |
| 2026-04-25 06:02 | 29.58279 | -95.34338 | 1954 ft | 228 kts | 42° |
| 2026-04-25 06:02 | 29.59527 | -95.33162 | 1888 ft | 235 kts | 39° |
| 2026-04-25 06:02 | 29.60752 | -95.31985 | 1586 ft | 223 kts | 44° |
| 2026-04-25 06:03 | 29.61883 | -95.30780 | 1013 ft | 220 kts | 44° |
| 2026-04-25 06:03 | 29.62953 | -95.29597 | 491 ft | 212 kts | 45° |
| 2026-04-25 06:03 | 29.63990 | -95.28452 | 107 ft | 198 kts | 44° |
| 2026-04-25 06:03 | 29.64873 | -95.27480 | 51 ft | 136 kts | 48° |
| 2026-04-25 06:04 | 29.65288 | -95.27194 | 51 ft | 37 kts | 344° |
| 2026-04-25 06:04 | 29.65341 | -95.27297 | 51 ft | 0 kts | 258° |